Flight Track Log - Related Links

Times and Time Zones

All times are in EDT time to prevent confusion due to time zone crossing. See the DAL268 flight status page for this flight to view local times or setup timezone preferences in your user account.

Time Position Orientation Groundspeed Altitude Reporting Facility
EDT Latitude Longitude Course Direction KTS MPH feet Rate Location/Type
Tue 02:41:50 PM 37.6333 -122.3500 72° East 157 181 1,500  Level Northern Cal TRACON
Tue 02:42:50 PM 37.6667 -122.3000 50° Northeast 224 258 3,200 2,650 Climbing Northern Cal TRACON
Tue 02:43:50 PM 37.7333 -122.2333 38° Northeast 266 306 6,800 3,500 Climbing Northern Cal TRACON
Tue 02:44:00 PM 37.7118 -122.0540 63° Northeast  Level FlightAware Approximate
Tue 02:44:50 PM 37.7667 -122.1500 63° Northeast 277 319 10,200  Level Northern Cal TRACON
Tue 02:45:00 PM 37.7692 -121.9016 65° Northeast  Level FlightAware Approximate
Tue 02:46:00 PM 37.8181 -121.7458 67° East  Level FlightAware Approximate
Tue 02:46:44 PM 37.8239 -121.9486 70° East 369 425 13,100  Level Oakland Center
Tue 02:47:00 PM 37.8728 -121.5922 72° East  Level FlightAware Approximate
Tue 02:47:45 PM 37.8603 -121.8142 71° East 400 460 15,600  Level Oakland Center
Tue 02:48:47 PM 37.8978 -121.6750 71° East 416 479 17,800 2,098 Climbing Oakland Center
Tue 02:49:48 PM 37.9364 -121.5289 71° East 434 499 19,900 2,115 Climbing Oakland Center
Tue 02:50:49 PM 37.9814 -121.3619 71° East 447 514 22,100 2,049 Climbing Oakland Center
Tue 02:51:51 PM 38.0200 -121.2081 72° East 459 528 24,100 1,756 Climbing Oakland Center
Tue 02:52:52 PM 38.0503 -121.0483 76° East 467 537 25,700 1,869 Climbing Oakland Center
Tue 02:53:53 PM 38.0817 -120.8889 76° East 470 541 27,900 2,016 Climbing Oakland Center
Tue 02:54:54 PM 38.1092 -120.7322 77° East 461 531 29,800 1,659 Climbing Oakland Center
Tue 02:55:56 PM 38.1436 -120.5436 77° East 460 529 31,300 1,415 Climbing Oakland Center
Tue 02:56:57 PM 38.1733 -120.3825 77° East 468 539 32,700 1,623 Climbing Oakland Center
Tue 02:57:58 PM 38.2008 -120.2228 78° East 467 537 34,600 1,073 Climbing Oakland Center
Tue 02:59:00 PM 38.2300 -120.0672 77° East 455 524 34,900 146 Climbing Oakland Center
Tue 03:00:01 PM 38.2564 -119.9100 78° East 457 526 34,900  Level Oakland Center
Tue 03:01:02 PM 38.2853 -119.7519 77° East 460 529 34,900  Level Oakland Center
Tue 03:02:04 PM 38.3125 -119.5931 78° East 461 531 34,900  Level Oakland Center
Tue 03:03:05 PM 38.3436 -119.4069 78° East 465 535 34,900  Level Oakland Center
Tue 03:04:07 PM 38.3708 -119.2489 78° East 461 531 34,900  Level Oakland Center
Tue 03:05:08 PM 38.3986 -119.0883 78° East 465 535 34,900  Level Oakland Center
Tue 03:06:09 PM 38.4247 -118.9272 78° East 468 539 34,900 98 Level Oakland Center
Tue 03:07:11 PM 38.4517 -118.7678 78° East 464 534 35,100 683 Climbing Oakland Center
Tue 03:08:12 PM 38.4775 -118.6092 78° East 460 529 36,300 878 Climbing Oakland Center
Tue 03:09:14 PM 38.5036 -118.4464 78° East 467 537 36,900 293 Climbing Oakland Center
Tue 03:10:15 PM 38.5306 -118.2836 78° East 471 542 36,900  Level Oakland Center
Tue 03:11:16 PM 38.5614 -118.0908 78° East 475 547 36,900  Level Oakland Center
Tue 03:12:18 PM 38.5872 -117.9225 79° East 480 552 36,900  Level Oakland Center
Tue 03:13:19 PM 38.6139 -117.7544 78° East 481 554 36,900  Level Oakland Center
Tue 03:14:21 PM 38.6400 -117.5831 79° East 485 558 36,900  Level Oakland Center
Tue 03:15:22 PM 38.6656 -117.4131 79° East 485 558 36,900  Level Oakland Center
Tue 03:17:25 PM 38.7161 -117.0756 79° East 481 554 36,900  Level Oakland Center
Tue 03:18:32 PM 38.7458 -116.8722 79° East 482 555 36,900  Level Salt Lake Center
Tue 03:19:34 PM 38.7694 -116.7039 80° East 480 552 36,900  Level Salt Lake Center
Tue 03:20:29 PM 38.7903 -116.5703 79° East 477 549 36,900  Level Oakland Center
Tue 03:21:31 PM 38.8186 -116.3683 80° East 478 550 36,900  Level Oakland Center
Tue 03:22:32 PM 38.8428 -116.2014 79° East 476 548 36,900  Level Oakland Center
Tue 03:23:34 PM 38.8667 -116.0306 80° East 475 547 36,900  Level Oakland Center
Tue 03:24:43 PM 38.8883 -115.8697 80° East 471 542 36,900  Level Salt Lake Center
Tue 03:25:45 PM 38.9158 -115.6697 80° East 472 543 36,900  Level Salt Lake Center
Tue 03:26:46 PM 38.9381 -115.5042 80° East 473 544 36,900  Level Salt Lake Center
Tue 03:27:48 PM 38.9619 -115.3272 80° East 475 547 36,900  Level Salt Lake Center
Tue 03:28:50 PM 38.9856 -115.1578 80° East 481 554 36,900  Level Salt Lake Center
Tue 03:29:52 PM 39.0075 -114.9903 80° East 478 550 36,900  Level Salt Lake Center
Tue 03:30:53 PM 39.0289 -114.8233 81° East 476 548 36,900  Level Salt Lake Center
Tue 03:31:55 PM 39.0511 -114.6533 80° East 479 551 36,900  Level Salt Lake Center
Tue 03:32:57 PM 39.0717 -114.4850 81° East 480 552 36,900  Level Salt Lake Center
Tue 03:33:59 PM 39.0928 -114.3150 81° East 480 552 36,900  Level Salt Lake Center
Tue 03:35:00 PM 39.1186 -114.1114 81° East 481 554 36,900  Level Salt Lake Center
Tue 03:36:02 PM 39.1397 -113.9397 81° East 485 558 36,900  Level Salt Lake Center
Tue 03:37:04 PM 39.1603 -113.7678 81° East 486 559 36,900  Level Salt Lake Center
Tue 03:38:06 PM 39.1803 -113.5967 81° East 484 557 36,900  Level Salt Lake Center
Tue 03:39:08 PM 39.2000 -113.4239 82° East 486 559 36,900  Level Salt Lake Center
Tue 03:40:09 PM 39.2200 -113.2500 82° East 489 563 36,900  Level Salt Lake Center
Tue 03:41:11 PM 39.2394 -113.0775 82° East 488 562 36,900  Level Salt Lake Center
Tue 03:42:13 PM 39.2592 -112.9028 82° East 491 565 36,900  Level Salt Lake Center
Tue 03:43:14 PM 39.2814 -112.6908 82° East 494 568 36,900  Level Salt Lake Center
Tue 03:44:16 PM 39.3039 -112.5142 81° East 497 572 36,900  Level Salt Lake Center
Tue 03:45:18 PM 39.3342 -112.3400 77° East 501 577 36,900  Level Salt Lake Center
Tue 03:46:20 PM 39.3661 -112.1650 77° East 503 579 36,900  Level Salt Lake Center
Tue 03:47:21 PM 39.3983 -111.9886 77° East 505 581 36,900  Level Salt Lake Center
Tue 03:48:23 PM 39.4311 -111.8103 77° East 511 588 36,900  Level Salt Lake Center
Tue 03:49:25 PM 39.4700 -111.5983 77° East 508 585 36,900  Level Salt Lake Center
Tue 03:50:26 PM 39.5028 -111.4211 76° East 508 585 36,900  Level Salt Lake Center
Tue 03:51:28 PM 39.5325 -111.2444 78° East 515 593 36,900  Level Salt Lake Center
Tue 03:52:30 PM 39.5686 -111.0431 77° East 514 592 36,900  Level Salt Lake Center
Tue 03:53:31 PM 39.5989 -110.8694 77° East 516 594 36,900  Level Salt Lake Center
Tue 03:54:33 PM 39.6300 -110.6950 77° East 518 596 36,900 48 Level Salt Lake Center
Tue 03:55:35 PM 39.6644 -110.4903 78° East 519 597 37,000 49 Climbing Salt Lake Center
Tue 03:56:36 PM 39.6944 -110.3142 77° East 522 601 37,000  Level Salt Lake Center
Tue 03:57:38 PM 39.7286 -110.1086 78° East 522 601 37,000  Level Salt Lake Center
Tue 03:58:40 PM 39.7572 -109.9303 78° East 525 604 37,000  Level Salt Lake Center
Tue 03:59:41 PM 39.7911 -109.7228 78° East 526 605 37,000  Level Salt Lake Center
Tue 04:00:43 PM 39.8192 -109.5433 78° East 528 608 37,000  Level Salt Lake Center
Tue 04:01:45 PM 39.8483 -109.3650 78° East 526 605 37,000  Level Salt Lake Center
Tue 04:02:46 PM 39.8817 -109.1544 78° East 528 608 37,000  Level Salt Lake Center
Tue 04:03:48 PM 39.9131 -108.9725 77° East 533 613 37,000  Level Salt Lake Center
Tue 04:04:50 PM 39.9703 -108.7992 67° East 538 619 37,000  Level Salt Lake Center
Tue 04:05:51 PM 40.0328 -108.5942 68° East 540 621 37,000  Level Salt Lake Center
Tue 04:06:53 PM 40.0831 -108.4161 70° East 542 624 37,000  Level Salt Lake Center
Tue 04:07:55 PM 40.1414 -108.2092 70° East 543 625 37,000  Level Salt Lake Center
Tue 04:08:56 PM 40.1903 -108.0328 70° East 540 621 37,000  Level Salt Lake Center
Tue 04:09:58 PM 40.2406 -107.8539 70° East 544 626 37,000  Level Salt Lake Center
Tue 04:11:26 PM 40.3275 -107.5569 69° East 547 629 37,000  Level Denver Center
Tue 04:12:27 PM 40.3797 -107.3778 69° East 549 632 37,000  Level Denver Center
Tue 04:13:29 PM 40.4300 -107.1986 70° East 547 629 37,000  Level Denver Center
Tue 04:14:31 PM 40.4886 -106.9939 69° East 548 631 37,000  Level Denver Center
Tue 04:15:33 PM 40.5425 -106.8044 69° East 549 632 37,000  Level Denver Center
Tue 04:16:35 PM 40.5958 -106.6156 70° East 548 631 37,000  Level Denver Center
Tue 04:17:36 PM 40.6514 -106.4203 69° East 547 629 37,000  Level Denver Center
Tue 04:18:38 PM 40.7092 -106.2108 70° East 545 627 37,000  Level Denver Center
Tue 04:19:40 PM 40.7514 -106.0483 71° East 544 626 37,000  Level Denver Center
Tue 04:20:42 PM 40.8119 -105.8231 70° East 543 625 37,000  Level Denver Center
Tue 04:21:44 PM 40.8633 -105.6342 70° East 544 626 37,000  Level Denver Center
Tue 04:22:46 PM 40.9139 -105.4428 71° East 548 631 37,000  Level Denver Center
Tue 04:23:48 PM 40.9647 -105.2522 70° East 549 632 37,000  Level Denver Center
Tue 04:24:50 PM 41.0153 -105.0611 71° East 548 631 37,000  Level Denver Center
Tue 04:25:52 PM 41.0706 -104.8483 71° East 548 631 37,000  Level Denver Center
Tue 04:26:54 PM 41.1181 -104.6597 71° East 558 642 37,000  Level Denver Center
Tue 04:27:55 PM 41.1728 -104.4481 71° East 552 635 37,000  Level Denver Center
Tue 04:28:57 PM 41.2197 -104.2625 71° East 554 638 37,000  Level Denver Center
Tue 04:29:59 PM 41.2736 -104.0478 71° East 552 635 37,000  Level Denver Center
Tue 04:31:01 PM 41.3203 -103.8639 71° East 553 636 37,000  Level Denver Center
Tue 04:32:03 PM 41.3728 -103.6475 72° East 553 636 37,000  Level Denver Center
Tue 04:33:05 PM 41.4189 -103.4633 71° East 552 635 37,000  Level Denver Center
Tue 04:34:07 PM 41.4711 -103.2469 72° East 551 634 37,000  Level Denver Center
Tue 04:35:09 PM 41.5161 -103.0622 72° East 551 634 37,000  Level Denver Center
Tue 04:36:11 PM 41.5678 -102.8461 72° East 550 633 37,000  Level Denver Center
Tue 04:37:13 PM 41.6128 -102.6597 72° East 552 635 37,000  Level Denver Center
Tue 04:38:15 PM 41.6592 -102.4589 73° East 550 633 37,000  Level Denver Center
Tue 04:39:17 PM 41.7103 -102.2400 73° East 551 634 37,000  Level Denver Center
Tue 04:40:19 PM 41.7550 -102.0508 72° East 554 638 37,000  Level Denver Center
Tue 04:41:21 PM 41.7975 -101.8619 73° East 554 638 37,000  Level Denver Center
Tue 04:42:23 PM 41.8475 -101.6428 73° East 550 633 37,000  Level Denver Center
Tue 04:43:25 PM 41.8908 -101.4508 73° East 557 641 37,000  Level Denver Center
Tue 04:44:26 PM 41.9397 -101.2308 73° East 553 636 37,000  Level Denver Center
Tue 04:45:28 PM 41.9828 -101.0383 73° East 557 641 37,000  Level Denver Center
Tue 04:46:30 PM 42.0314 -100.8153 74° East 557 641 37,000  Level Denver Center
Tue 04:47:32 PM 42.0725 -100.6256 74° East 553 636 37,000  Level Denver Center
Tue 04:48:34 PM 42.1197 -100.3992 74° East 559 643 37,000  Level Denver Center
Tue 04:49:31 PM 42.1514 -100.2500 74° East 559 643 37,000  Level Minneapolis Center
Tue 04:50:38 PM 42.2019 -100.0133 74° East 559 643 37,000  Level Denver Center
Tue 04:51:40 PM 42.2486 -99.7847 75° East 563 648 37,000  Level Denver Center
Tue 04:52:42 PM 42.2886 -99.5961 74° East 565 650 37,000  Level Denver Center
Tue 04:53:44 PM 42.3306 -99.3922 74° East 563 648 37,000  Level Denver Center
Tue 04:54:46 PM 42.3794 -99.1428 75° East 567 652 37,000  Level Denver Center
Tue 04:55:43 PM 42.4139 -98.9806 74° East 566 651 37,000  Level Minneapolis Center
Tue 04:56:45 PM 42.4533 -98.7747 75° East 564 649 37,000  Level Minneapolis Center
Tue 04:57:47 PM 42.4814 -98.5225 81° East 565 650 37,000  Level Minneapolis Center
Tue 04:58:50 PM 42.4894 -98.3117 87° East 559 643 37,000  Level Minneapolis Center
Tue 04:59:53 PM 42.4989 -98.0997 86° East 562 647 37,000  Level Minneapolis Center
Tue 05:00:55 PM 42.5081 -97.8883 87° East 561 646 37,000  Level Minneapolis Center
Tue 05:01:57 PM 42.5186 -97.6553 86° East 562 647 37,000  Level Minneapolis Center
Tue 05:02:59 PM 42.5283 -97.4436 86° East 563 648 37,000  Level Minneapolis Center
Tue 05:04:01 PM 42.5408 -97.2317 85° East 563 648 37,000  Level Minneapolis Center
Tue 05:05:03 PM 42.5517 -97.0194 86° East 563 648 37,000  Level Minneapolis Center
Tue 05:06:05 PM 42.5628 -96.8067 86° East 564 649 37,000  Level Minneapolis Center
Tue 05:07:07 PM 42.5722 -96.5936 86° East 564 649 37,000  Level Minneapolis Center
Tue 05:08:09 PM 42.5833 -96.3367 87° East 566 651 37,000  Level Minneapolis Center
Tue 05:09:11 PM 42.5933 -96.1228 86° East 565 650 37,000  Level Minneapolis Center
Tue 05:10:13 PM 42.6019 -95.9083 87° East 568 654 37,000  Level Minneapolis Center
Tue 05:11:15 PM 42.6106 -95.6981 87° East 560 644 37,000  Level Minneapolis Center
Tue 05:12:18 PM 42.6183 -95.4867 87° East 560 644 37,000  Level Minneapolis Center
Tue 05:13:20 PM 42.6267 -95.2736 87° East 561 646 37,000  Level Minneapolis Center
Tue 05:14:22 PM 42.6339 -95.0625 87° East 560 644 37,000  Level Minneapolis Center
Tue 05:15:24 PM 42.6422 -94.8103 87° East 557 641 37,000  Level Minneapolis Center
Tue 05:16:26 PM 42.6481 -94.5967 88° East 564 649 37,000  Level Minneapolis Center
Tue 05:17:28 PM 42.6525 -94.3906 88° East 564 649 37,000  Level Minneapolis Center
Tue 05:18:30 PM 42.6586 -94.1822 88° East 560 644 37,000  Level Minneapolis Center
Tue 05:19:32 PM 42.6642 -93.9725 88° East 561 646 37,000  Level Minneapolis Center
Tue 05:20:34 PM 42.6686 -93.7183 89° East 565 650 37,000  Level Minneapolis Center
Tue 05:21:36 PM 42.6742 -93.5089 88° East 562 647 37,000  Level Minneapolis Center
Tue 05:22:38 PM 42.6789 -93.2986 88° East 562 647 37,000  Level Minneapolis Center
Tue 05:23:40 PM 42.6814 -93.0889 89° East 561 646 37,000  Level Minneapolis Center
Tue 05:24:33 PM 42.6844 -92.8778 89° East 561 646 37,000  Level Chicago Center
Tue 05:25:35 PM 42.6875 -92.6683 89° East 561 646 37,000  Level Chicago Center
Tue 05:26:37 PM 42.6903 -92.4583 89° East 561 646 37,000  Level Chicago Center
Tue 05:27:39 PM 42.6922 -92.2489 89° East 562 647 37,000  Level Chicago Center
Tue 05:28:41 PM 42.6944 -92.0394 89° East 562 647 37,000  Level Chicago Center
Tue 05:29:44 PM 42.6958 -91.7906 89° East 558 642 37,000  Level Chicago Center
Tue 05:30:46 PM 42.6964 -91.5656 90° East 561 646 37,000  Level Chicago Center
Tue 05:31:48 PM 42.6978 -91.3417 89° East 565 650 37,000  Level Chicago Center
Tue 05:32:50 PM 42.6978 -91.1311 90° East 566 651 37,000  Level Chicago Center
Tue 05:33:52 PM 42.6981 -90.9228 90° East 561 646 37,000  Level Chicago Center
Tue 05:34:54 PM 42.6967 -90.7114 90° East 563 648 37,000  Level Chicago Center
Tue 05:35:56 PM 42.6958 -90.5000 90° East 567 652 37,000  Level Chicago Center
Tue 05:36:58 PM 42.6936 -90.2475 91° East 564 649 37,000  Level Chicago Center
Tue 05:38:00 PM 42.6928 -90.0350 90° East 566 651 37,000  Level Chicago Center
Tue 05:39:02 PM 42.6897 -89.8253 91° East 562 647 37,000  Level Chicago Center
Tue 05:40:05 PM 42.6869 -89.6142 91° East 565 650 37,000  Level Chicago Center
Tue 05:41:07 PM 42.6836 -89.4036 91° East 563 648 37,000  Level Chicago Center
Tue 05:42:09 PM 42.6789 -89.1508 91° East 562 647 37,000  Level Chicago Center
Tue 05:43:11 PM 42.6761 -88.9392 91° East 564 649 37,000 387 Level Chicago Center
Tue 05:44:13 PM 42.6706 -88.7103 92° East 566 651 37,800 968 Climbing Chicago Center
Tue 05:45:15 PM 42.6650 -88.5000 92° East 560 644 39,000 581 Climbing Chicago Center
Tue 05:46:17 PM 42.6592 -88.2922 92° East 554 638 39,000  Level Chicago Center
Tue 05:47:19 PM 42.6544 -88.0831 92° East 555 639 39,000  Level Chicago Center
Tue 05:48:21 PM 42.6475 -87.8742 93° East 555 639 39,000  Level Chicago Center
Tue 05:49:24 PM 42.6408 -87.6536 92° East 560 644 39,000  Level Chicago Center
Tue 05:50:26 PM 42.6342 -87.4431 92° East 559 643 39,000  Level Chicago Center
Tue 05:51:28 PM 42.6253 -87.1917 93° East 559 643 39,000  Level Chicago Center
Tue 05:52:30 PM 42.6175 -86.9814 93° East 561 646 39,000  Level Chicago Center
Tue 05:53:32 PM 42.6097 -86.7717 93° East 559 643 39,000  Level Chicago Center
Tue 05:54:34 PM 42.6017 -86.5619 93° East 562 647 39,000  Level Chicago Center
Tue 05:55:36 PM 42.5925 -86.3508 93° East 565 650 39,000  Level Chicago Center
Tue 05:56:39 PM 42.5814 -86.0975 93° East 567 652 39,000  Level Chicago Center
Tue 05:57:40 PM 42.5722 -85.8850 93° East 569 655 39,000  Level Chicago Center
Tue 05:58:43 PM 42.5622 -85.6733 94° East 570 656 39,000  Level Chicago Center
Tue 05:59:45 PM 42.5517 -85.4606 94° East 571 657 39,000  Level Chicago Center
Tue 06:00:47 PM 42.5392 -85.2053 94° East 569 655 39,000  Level Chicago Center
Tue 06:01:49 PM 42.5278 -84.9922 94° East 569 655 39,000  Level Chicago Center
Tue 06:02:52 PM 42.5158 -84.7781 94° East 572 658 39,000  Level Chicago Center
Tue 06:03:54 PM 42.5039 -84.5656 94° East 570 656 39,000  Level Chicago Center
Tue 06:04:50 PM 42.4928 -84.3722 94° East 572 658 39,000  Level Cleveland Center
Tue 06:05:52 PM 42.4756 -84.1150 95° East 572 658 39,000  Level Cleveland Center
Tue 06:06:54 PM 42.4614 -83.9003 95° East 572 658 39,000  Level Cleveland Center
Tue 06:07:56 PM 42.4469 -83.6842 95° East 573 659 39,000  Level Cleveland Center
Tue 06:08:58 PM 42.4325 -83.4653 95° East 573 659 39,000  Level Cleveland Center
Tue 06:10:00 PM 42.4156 -83.2306 96° East 571 657 39,000  Level Cleveland Center
Tue 06:11:02 PM 42.4008 -83.0308 96° East 572 658 39,000  Level Cleveland Center
Tue 06:12:04 PM 42.3847 -82.8164 96° East 571 657 39,000  Level Cleveland Center
Tue 06:13:06 PM 42.3706 -82.6017 95° East 573 659 39,000  Level Cleveland Center
Tue 06:14:09 PM 42.3644 -82.3894 92° East 567 652 39,000  Level Cleveland Center
Tue 06:15:11 PM 42.3550 -82.1325 93° East 572 658 39,000  Level Cleveland Center
Tue 06:16:13 PM 42.3461 -81.9344 93° East 569 655 39,000  Level Cleveland Center
Tue 06:17:15 PM 42.3367 -81.7147 93° East 575 662 39,000  Level Cleveland Center
Tue 06:18:17 PM 42.3242 -81.4633 94° East 570 656 39,000  Level Cleveland Center
Tue 06:19:19 PM 42.3131 -81.2461 94° East 571 657 39,000  Level Cleveland Center
Tue 06:20:21 PM 42.3031 -81.0297 94° East 573 659 39,000  Level Cleveland Center
Tue 06:21:23 PM 42.2914 -80.8128 94° East 573 659 39,000  Level Cleveland Center
Tue 06:22:25 PM 42.2806 -80.5983 94° East 568 654 39,000  Level Cleveland Center
Tue 06:23:27 PM 42.2667 -80.3825 95° East 571 657 39,000  Level Cleveland Center
Tue 06:24:29 PM 42.2433 -80.1675 98° East 573 659 39,000  Level Cleveland Center
Tue 06:25:31 PM 42.2100 -79.9503 102° East 576 663 39,000  Level Cleveland Center
Tue 06:26:34 PM 42.1761 -79.7431 102° East 573 659 39,000  Level Cleveland Center
Tue 06:27:36 PM 42.1331 -79.4892 103° East 581 669 39,000  Level Cleveland Center
Tue 06:28:38 PM 42.0969 -79.2806 103° East 576 663 39,000  Level Cleveland Center
Tue 06:29:40 PM 42.0614 -79.0708 103° East 578 665 39,000  Level Cleveland Center
Tue 06:30:42 PM 42.0239 -78.8608 103° East 578 665 39,000  Level Cleveland Center
Tue 06:31:44 PM 41.9869 -78.6531 103° East 574 661 39,000  Level Cleveland Center
Tue 06:32:46 PM 41.9422 -78.4031 103° East 574 661 39,000  Level Cleveland Center
Tue 06:33:48 PM 41.9042 -78.1942 104° East 575 662 39,000  Level Cleveland Center
Tue 06:34:50 PM 41.8669 -77.9858 103° East 575 662 39,000  Level Cleveland Center
Tue 06:35:52 PM 41.8281 -77.7778 104° East 576 663 39,000  Level Cleveland Center
Tue 06:36:22 PM 41.8078 -77.6833 106° East 583 671 39,000  Level New York Center
Tue 06:37:22 PM 41.7633 -77.4728 106° East 583 671 39,000  Level New York Center
Tue 06:38:22 PM 41.7103 -77.2703 109° East 578 665 39,000  Level New York Center
Tue 06:39:22 PM 41.6564 -77.0706 110° East 578 665 39,000  Level New York Center
Tue 06:40:22 PM 41.6003 -76.8683 110° East 578 665 39,000  Level New York Center
Tue 06:41:22 PM 41.5478 -76.6694 109° East 578 665 39,000  Level New York Center
Tue 06:42:22 PM 41.4875 -76.4536 110° East 578 665 39,000 -750 Level New York Center
Tue 06:43:22 PM 41.4358 -76.2694 110° East 578 665 37,500 -1,950 Descending New York Center
Tue 06:44:22 PM 41.3750 -76.0486 110° East 585 673 35,100 -2,550 Descending New York Center
Tue 06:45:22 PM 41.3206 -75.8622 111° Southeast 566 651 32,400 -2,950 Descending New York Center
Tue 06:46:22 PM 41.2661 -75.6703 111° Southeast 553 636 29,200 -3,300 Descending New York Center
Tue 06:47:22 PM 41.2047 -75.4894 114° Southeast 543 625 25,800 -3,000 Descending New York Center
Tue 06:48:22 PM 41.1469 -75.3172 114° Southeast 522 601 23,200 -1,400 Descending New York Center
Tue 06:49:22 PM 41.0889 -75.1456 114° Southeast 511 588 23,000 -100 Descending New York Center
Tue 06:50:22 PM 41.0306 -74.9739 114° Southeast 511 588 23,000 -50 Level New York Center
Tue 06:51:22 PM 40.9906 -74.8067 108° East 519 597 22,900 -50 Descending New York Center
Tue 06:52:22 PM 40.9675 -74.6211 99° East 519 597 22,900 -1,200 Level New York Center
Tue 06:53:22 PM 40.9486 -74.4331 98° East 513 590 20,500 -1,950 Descending New York Center
Tue 06:54:22 PM 40.9142 -74.2667 105° East 493 567 19,000 -1,200 Descending New York Center
Tue 06:55:22 PM 40.8475 -74.1233 122° Southeast 446 513 18,100 -1,450 Descending New York Center
Tue 06:56:22 PM 40.7372 -74.0439 151° Southeast 445 512 16,100 -2,400 Descending New York Center
Tue 06:57:22 PM 40.6178 -73.9917 162° South 426 490 13,300 -1,950 Descending New York Center
Tue 06:58:22 PM 40.5150 -73.9406 159° South 415 478 12,200 -1,300 Descending New York Center
Tue 06:59:22 PM 40.4439 -73.8744 145° Southeast 358 412 10,700 -1,850 Descending New York Center
Tue 07:00:22 PM 40.3897 -73.7903 130° Southeast 312 359 8,500 -2,350 Descending New York Center
Tue 07:01:22 PM 40.3611 -73.6828 109° East 291 335 6,000 -2,200 Descending New York Center
Tue 07:02:22 PM 40.3861 -73.6019 68° East 257 296 4,100 -1,000 Descending New York Center
Tue 07:03:22 PM 40.4539 -73.5503 30° Northeast 241 277 4,000 -50 Descending New York Center
Tue 07:04:22 PM 40.5111 -73.5089 29° Northeast 247 284 4,000  Level New York Center
Tue 07:05:22 PM 40.5811 -73.4600 28° Northeast 258 297 4,000  Level New York Center
Tue 07:06:22 PM 40.6383 -73.4183 29° Northeast 258 297 4,000  Level New York Center
Tue 07:07:22 PM 40.7094 -73.4075 North 226 260 4,000 -222 Level New York Center
Tue 07:08:37 PM 40.7500 -73.5000 300° West 213 245 3,500 -489 Descending New York TRACON
Tue 07:09:37 PM 40.7667 -73.5667 288° West 185 213 2,900 -700 Descending New York TRACON
Tue 07:10:37 PM 40.7833 -73.6333 288° West 184 212 2,100 -450 Descending New York TRACON
Tue 07:11:37 PM 40.7500 -73.6833 229° Southwest 181 208 2,000 -333 Descending New York TRACON
Tue 07:12:43 PM 40.7000 -73.7167 207° Southwest 141 162 1,400 -619 Descending New York TRACON
Tue 07:13:43 PM 40.6667 -73.7333 201° Southwest 129 148 700 -700 Descending New York TRACON

Login

Don't have an account? Register now (free) for customized features, flight alerts, and more!